createdAt,value
2023-04-02T00:01:53.551Z,99258.88
2023-04-02T00:07:31.766Z,99259.19
2023-04-02T00:12:33.253Z,99268.19
2023-04-02T00:17:34.704Z,99276.59
2023-04-02T00:22:44.148Z,99283.31
2023-04-02T00:27:46.005Z,99278.88
2023-04-02T00:32:48.039Z,99293.75
2023-04-02T00:37:50.262Z,99288.75
2023-04-02T00:42:54.601Z,99288.91
2023-04-02T00:47:58.812Z,99308.72
2023-04-02T00:53:09.914Z,99303.31
2023-04-02T00:58:25.447Z,99313.44
2023-04-02T01:03:36.515Z,99303.34
2023-04-02T01:09:09.567Z,99317.91
2023-04-02T01:14:29.365Z,99315.38
2023-04-02T01:19:52.851Z,99319.28
2023-04-02T01:25:00.896Z,99330.28
2023-04-02T01:30:05.173Z,99327.47
2023-04-02T01:35:08.321Z,99331.72
2023-04-02T01:40:21.678Z,99341.94
2023-04-02T01:45:25.223Z,99349.50
2023-04-02T01:50:37.275Z,99352.38
2023-04-02T01:55:47.032Z,99367.03
2023-04-02T02:00:57.021Z,99371.38
2023-04-02T02:05:59.906Z,99366.13
2023-04-02T02:11:02.603Z,99375.22
2023-04-02T02:16:05.083Z,99381.59
2023-04-02T02:21:10.329Z,99393.38
2023-04-02T02:26:13.761Z,99372.41
2023-04-02T02:31:22.796Z,99379.16
2023-04-02T02:36:33.534Z,99400.97
2023-04-02T02:41:45.594Z,99413.81
2023-04-02T02:46:55.248Z,99420.69
2023-04-02T02:52:08.830Z,99422.38
2023-04-02T02:57:17.198Z,99423.34
2023-04-02T03:02:19.179Z,99422.84
2023-04-02T03:07:26.427Z,99439.63
2023-04-02T03:12:40.216Z,99448.28
2023-04-02T03:17:48.986Z,99451.81
2023-04-02T03:23:01.214Z,99442.72
2023-04-02T03:28:07.956Z,99452.22
2023-04-02T03:33:15.355Z,99467.94
2023-04-02T03:38:20.359Z,99483.84
2023-04-02T03:43:31.385Z,99495.75
2023-04-02T03:48:46.567Z,99501.78
2023-04-02T03:53:49.540Z,99499.53
2023-04-02T03:59:01.722Z,99516.34
2023-04-02T04:04:10.391Z,99529.50
2023-04-02T04:09:22.684Z,99509.91
2023-04-02T04:14:34.750Z,99537.91
2023-04-02T04:19:48.376Z,99539.63
2023-04-02T04:24:50.089Z,99526.44
2023-04-02T04:30:18.367Z,99551.34
2023-04-02T04:35:28.905Z,99562.88
2023-04-02T04:40:37.471Z,99557.97
2023-04-02T04:45:45.987Z,99571.97
2023-04-02T04:50:50.478Z,99585.44
2023-04-02T04:56:18.567Z,99599.88
2023-04-02T05:01:27.545Z,99619.47
2023-04-02T05:06:40.574Z,99615.13
2023-04-02T05:11:51.244Z,99631.41
2023-04-02T05:17:09.162Z,99622.84
2023-04-02T05:22:32.351Z,99633.50
2023-04-02T05:27:42.418Z,99648.50
2023-04-02T05:32:50.829Z,99649.75
2023-04-02T05:37:53.311Z,99647.66
2023-04-02T05:42:55.906Z,99664.19
2023-04-02T05:48:02.597Z,99677.38
2023-04-02T05:53:14.397Z,99684.09
2023-04-02T05:58:35.326Z,99680.31
2023-04-02T06:03:56.366Z,99698.53
2023-04-02T06:09:03.800Z,99686.34
2023-04-02T06:14:05.423Z,99705.28
2023-04-02T06:19:15.640Z,99736.69
2023-04-02T06:24:22.540Z,99744.97
2023-04-02T06:29:38.457Z,99758.22
2023-04-02T06:34:42.452Z,99748.97
2023-04-02T06:39:44.055Z,99768.22
2023-04-02T06:44:46.152Z,99797.56
2023-04-02T06:50:03.940Z,99795.53
2023-04-02T06:55:37.076Z,99822.88
2023-04-02T07:00:43.409Z,99840.97
2023-04-02T07:05:45.815Z,99838.75
2023-04-02T07:10:47.817Z,99871.88
2023-04-02T07:15:52.507Z,99866.00
2023-04-02T07:20:56.190Z,99894.59
2023-04-02T07:25:59.662Z,99912.13
2023-04-02T07:31:02.186Z,99909.66
2023-04-02T07:36:03.772Z,99933.88
2023-04-02T07:41:07.049Z,99939.84
2023-04-02T07:46:10.852Z,99954.72
2023-04-02T07:51:21.698Z,99944.00
2023-04-02T07:56:24.907Z,99979.78
2023-04-02T08:01:27.668Z,99981.72
2023-04-02T08:06:29.712Z,99992.09
2023-04-02T08:11:31.979Z,100008.91
2023-04-02T08:16:49.617Z,100019.34
2023-04-02T08:21:51.997Z,100035.50
2023-04-02T08:26:54.158Z,100029.72
2023-04-02T08:31:56.130Z,100058.34
2023-04-02T08:36:58.997Z,100052.41
2023-04-02T08:42:21.344Z,100069.44
2023-04-02T08:47:26.317Z,100074.41
2023-04-02T08:52:32.505Z,100098.06
2023-04-02T08:57:49.116Z,100104.13
2023-04-02T09:03:00.587Z,100122.00
2023-04-02T09:08:06.107Z,100109.09
2023-04-02T09:13:17.263Z,100137.84
2023-04-02T09:18:20.057Z,100146.16
2023-04-02T09:23:24.363Z,100151.34
2023-04-02T09:28:26.348Z,100155.09
2023-04-02T09:33:50.399Z,100184.38
2023-04-02T09:39:11.619Z,100177.00
2023-04-02T09:44:17.887Z,100200.19
2023-04-02T09:49:22.960Z,100210.16
2023-04-02T09:54:27.100Z,100213.53
2023-04-02T09:59:29.328Z,100229.34
2023-04-02T10:04:48.433Z,100233.44
2023-04-02T10:10:01.246Z,100252.03
2023-04-02T10:15:04.494Z,100256.84
2023-04-02T10:20:17.210Z,100267.28
2023-04-02T10:25:24.776Z,100259.06
2023-04-02T10:30:45.228Z,100281.44
2023-04-02T10:36:05.626Z,100301.69
2023-04-02T10:41:29.110Z,100309.41
2023-04-02T10:46:43.986Z,100312.94
2023-04-02T10:52:10.502Z,100317.66
2023-04-02T10:57:16.953Z,100300.22
2023-04-02T11:02:32.286Z,100318.41
2023-04-02T11:07:45.810Z,100332.78
2023-04-02T11:12:55.694Z,100337.75
2023-04-02T11:17:57.346Z,100337.97
2023-04-02T11:23:30.213Z,100366.88
2023-04-02T11:28:32.773Z,100361.97
2023-04-02T11:33:44.783Z,100365.81
2023-04-02T11:38:52.377Z,100392.91
2023-04-02T11:44:00.478Z,100394.63
2023-04-02T11:49:37.857Z,100405.97
2023-04-02T11:54:40.770Z,100413.59
2023-04-02T12:00:18.610Z,100430.28
2023-04-02T12:05:37.098Z,100440.94
2023-04-02T12:10:54.281Z,100443.25
2023-04-02T12:15:58.283Z,100456.31
2023-04-02T12:20:59.879Z,100466.44
2023-04-02T12:26:03.612Z,100473.00
2023-04-02T12:31:08.084Z,100483.19
2023-04-02T12:36:14.563Z,100480.50
2023-04-02T12:41:24.987Z,100493.81
2023-04-02T12:46:28.033Z,100503.00
2023-04-02T12:51:29.675Z,100514.34
2023-04-02T12:56:31.256Z,100525.88
2023-04-02T13:01:33.994Z,100526.78
2023-04-02T13:06:36.529Z,100523.66
2023-04-02T13:11:40.545Z,100531.38
2023-04-02T13:16:44.733Z,100545.22
2023-04-02T13:21:46.312Z,100549.78
2023-04-02T13:26:49.790Z,100548.59
2023-04-02T13:31:53.534Z,100558.63
2023-04-02T13:36:55.184Z,100570.94
2023-04-02T13:42:02.350Z,100570.53
2023-04-02T13:47:04.334Z,100565.56
2023-04-02T13:52:13.862Z,100578.41
2023-04-02T13:57:16.766Z,100588.09
2023-04-02T14:02:24.271Z,100592.59
2023-04-02T14:07:50.848Z,100597.97
2023-04-02T14:13:23.101Z,100615.44
2023-04-02T14:18:43.342Z,100611.19
2023-04-02T14:23:54.847Z,100628.72
2023-04-02T14:29:11.487Z,100636.16
2023-04-02T14:34:40.924Z,100641.78
2023-04-02T14:39:47.456Z,100643.19
2023-04-02T14:45:10.653Z,100641.16
2023-04-02T14:50:33.796Z,100662.63
2023-04-02T14:55:49.622Z,100672.84
2023-04-02T15:01:03.725Z,100680.91
2023-04-02T15:06:10.424Z,100691.31
2023-04-02T15:11:17.591Z,100701.41
2023-04-02T15:16:25.799Z,100705.53
2023-04-02T15:21:57.151Z,100717.94
2023-04-02T15:27:33.125Z,100703.19
2023-04-02T15:32:34.785Z,100718.69
2023-04-02T15:37:42.025Z,100720.38
2023-04-02T15:42:53.724Z,100726.72
2023-04-02T15:48:15.252Z,100735.06
2023-04-02T15:53:43.734Z,100747.13
2023-04-02T15:59:08.495Z,100746.09
2023-04-02T16:04:52.109Z,100758.53
2023-04-02T16:10:10.863Z,100770.25
2023-04-02T16:15:30.587Z,100764.69
2023-04-02T16:20:37.086Z,100785.38
2023-04-02T16:26:01.831Z,100763.78
2023-04-02T16:31:37.544Z,100793.50
2023-04-02T16:37:00.863Z,100798.09
2023-04-02T16:42:16.993Z,100815.53
2023-04-02T16:47:18.428Z,100827.22
2023-04-02T16:52:33.071Z,100840.16
2023-04-02T16:57:47.819Z,100851.34
2023-04-02T17:03:06.385Z,100858.06
2023-04-02T17:08:21.344Z,100855.97
2023-04-02T17:13:42.164Z,100880.13
2023-04-02T17:18:46.100Z,100866.09
2023-04-02T17:24:14.570Z,100903.22
2023-04-02T17:29:29.941Z,100911.84
2023-04-02T17:34:31.945Z,100919.13
2023-04-02T17:39:40.589Z,100923.63
2023-04-02T17:44:52.710Z,100940.97
2023-04-02T17:50:12.133Z,100948.81
2023-04-02T17:55:56.050Z,100957.69
2023-04-02T18:01:06.028Z,100967.00
2023-04-02T18:06:19.962Z,100977.53
2023-04-02T18:11:37.850Z,100984.19
2023-04-02T18:16:49.767Z,100990.06
2023-04-02T18:21:57.948Z,100993.44
2023-04-02T18:27:02.341Z,101002.84
2023-04-02T18:32:22.421Z,101011.63
2023-04-02T18:37:31.348Z,101032.25
2023-04-02T18:42:47.245Z,101030.38
2023-04-02T18:48:19.798Z,101016.72
2023-04-02T18:53:26.823Z,101055.25
2023-04-02T18:58:46.237Z,101058.84
2023-04-02T19:04:02.217Z,101066.34
2023-04-02T19:09:27.269Z,101064.06
2023-04-02T19:14:29.939Z,101082.00
2023-04-02T19:19:41.566Z,101081.25
2023-04-02T19:25:04.250Z,101089.38
2023-04-02T19:30:51.667Z,101090.63
2023-04-02T19:36:06.714Z,101072.69
2023-04-02T19:41:08.098Z,101108.16
2023-04-02T19:46:10.107Z,101098.84
2023-04-02T19:51:11.775Z,101097.13
2023-04-02T19:56:13.287Z,101104.56
2023-04-02T20:01:15.346Z,101076.84
2023-04-02T20:06:17.079Z,101118.94
2023-04-02T20:11:18.553Z,101118.94
2023-04-02T20:16:21.587Z,101118.06
2023-04-02T20:21:23.223Z,101127.78
2023-04-02T20:26:24.763Z,101132.31
2023-04-02T20:31:26.599Z,101144.50
2023-04-02T20:36:28.287Z,101143.09
2023-04-02T20:41:30.384Z,101154.09
2023-04-02T20:46:31.831Z,101172.47
2023-04-02T20:51:34.559Z,101175.91
2023-04-02T20:56:36.037Z,101177.34
2023-04-02T21:01:40.101Z,101167.16
2023-04-02T21:06:42.040Z,101172.47
2023-04-02T21:11:44.237Z,101181.72
2023-04-02T21:16:46.107Z,101195.44
2023-04-02T21:21:47.638Z,101187.25
2023-04-02T21:26:50.494Z,101202.44
2023-04-02T21:31:52.542Z,101204.00
2023-04-02T21:36:54.307Z,101206.88
2023-04-02T21:41:55.956Z,101211.00
2023-04-02T21:46:57.541Z,101202.34
2023-04-02T21:51:59.456Z,101202.28
2023-04-02T21:57:00.970Z,101202.34
2023-04-02T22:02:03.323Z,101201.06
2023-04-02T22:07:04.743Z,101213.91
2023-04-02T22:12:08.027Z,101214.91
2023-04-02T22:17:09.789Z,101203.16
2023-04-02T22:22:11.292Z,101208.78
2023-04-02T22:27:12.802Z,101198.53
2023-04-02T22:32:14.177Z,101197.78
2023-04-02T22:37:15.606Z,101213.34
2023-04-02T22:42:17.570Z,101196.38
2023-04-02T22:47:19.646Z,101190.22
2023-04-02T22:52:21.040Z,101201.50
2023-04-02T22:57:24.766Z,101199.50
2023-04-02T23:02:27.148Z,101193.28
2023-04-02T23:07:28.744Z,101212.09
2023-04-02T23:12:30.956Z,101184.84
2023-04-02T23:17:32.624Z,101200.34
2023-04-02T23:22:34.645Z,101216.56
2023-04-02T23:27:36.686Z,101213.97
2023-04-02T23:32:38.124Z,101202.91
2023-04-02T23:37:39.603Z,101215.72
2023-04-02T23:42:41.062Z,101205.28
2023-04-02T23:47:43.244Z,101208.69
2023-04-02T23:52:44.778Z,101213.66
2023-04-02T23:57:46.228Z,101214.50
